createdAt,value
2018-06-16T00:00:22.373Z,5.07
2018-06-16T00:05:17.104Z,4.47
2018-06-16T00:10:11.929Z,5.10
2018-06-16T00:15:06.747Z,4.90
2018-06-16T00:20:01.395Z,4.73
2018-06-16T00:25:00.562Z,5.47
2018-06-16T00:29:55.583Z,5.30
2018-06-16T00:34:50.246Z,5.13
2018-06-16T00:39:44.726Z,5.47
2018-06-16T00:44:39.464Z,5.00
2018-06-16T00:49:34.043Z,5.40
2018-06-16T00:54:29.202Z,5.73
2018-06-16T00:59:23.910Z,5.60
2018-06-16T01:04:18.510Z,5.30
2018-06-16T01:09:13.105Z,5.70
2018-06-16T01:14:07.627Z,6.87
2018-06-16T01:19:02.277Z,6.60
2018-06-16T01:23:56.787Z,6.07
2018-06-16T01:28:51.347Z,5.67
2018-06-16T01:33:46.254Z,5.83
2018-06-16T01:38:40.794Z,5.70
2018-06-16T01:43:35.799Z,5.37
2018-06-16T01:48:30.335Z,5.63
2018-06-16T01:53:24.898Z,5.90
2018-06-16T01:58:19.481Z,5.13
2018-06-16T02:03:13.964Z,6.00
2018-06-16T02:08:08.514Z,5.23
2018-06-16T02:13:03.098Z,5.57
2018-06-16T02:17:57.713Z,5.43
2018-06-16T02:22:52.853Z,4.93
2018-06-16T02:27:47.735Z,5.33
2018-06-16T02:32:42.313Z,5.60
2018-06-16T02:37:37.043Z,5.43
2018-06-16T02:42:31.336Z,5.17
2018-06-16T02:47:26.052Z,5.33
2018-06-16T02:52:20.546Z,4.87
2018-06-16T02:57:15.040Z,5.00
2018-06-16T03:02:09.532Z,6.30
2018-06-16T03:07:04.150Z,6.33
2018-06-16T03:11:58.706Z,6.57
2018-06-16T03:16:53.401Z,6.73
2018-06-16T03:21:47.931Z,6.40
2018-06-16T03:26:42.451Z,6.27
2018-06-16T03:31:36.980Z,6.40
2018-06-16T03:36:31.686Z,5.50
2018-06-16T03:41:26.445Z,6.10
2018-06-16T03:46:20.726Z,5.90
2018-06-16T03:51:15.603Z,6.07
2018-06-16T03:56:10.116Z,5.80
2018-06-16T04:01:04.857Z,5.80
2018-06-16T04:05:59.579Z,6.23
2018-06-16T04:10:56.872Z,5.47
2018-06-16T04:15:51.421Z,5.20
2018-06-16T04:20:46.110Z,4.80
2018-06-16T04:25:40.624Z,5.70
2018-06-16T04:30:35.965Z,5.43
2018-06-16T04:35:30.605Z,5.23
2018-06-16T04:40:24.894Z,4.67
2018-06-16T04:45:19.870Z,5.63
2018-06-16T04:50:14.446Z,5.43
2018-06-16T04:55:08.888Z,5.10
2018-06-16T05:00:03.380Z,5.50
2018-06-16T05:04:58.195Z,5.10
2018-06-16T05:09:52.976Z,5.90
2018-06-16T05:14:47.303Z,5.60
2018-06-16T05:19:44.814Z,5.77
2018-06-16T05:24:39.460Z,5.40
2018-06-16T05:29:34.021Z,5.13
2018-06-16T05:34:28.738Z,5.20
2018-06-16T05:39:23.886Z,4.97
2018-06-16T05:44:18.376Z,4.70
2018-06-16T05:49:13.563Z,4.80
2018-06-16T05:54:08.477Z,4.47
2018-06-16T05:59:03.493Z,3.83
2018-06-16T06:03:58.206Z,3.93
2018-06-16T06:08:53.502Z,3.10
2018-06-16T06:13:48.202Z,3.03
2018-06-16T06:18:42.453Z,3.37
2018-06-16T06:23:37.892Z,3.07
2018-06-16T06:28:32.987Z,2.97
2018-06-16T06:33:28.957Z,3.03
2018-06-16T06:38:26.174Z,2.90
2018-06-16T06:43:22.166Z,2.97
2018-06-16T06:48:17.084Z,3.00
2018-06-16T06:53:12.031Z,2.77
2018-06-16T06:58:06.974Z,3.27
2018-06-16T07:03:01.763Z,3.37
2018-06-16T07:07:56.546Z,3.50
2018-06-16T07:12:51.375Z,3.13
2018-06-16T07:17:46.358Z,3.17
2018-06-16T07:22:41.342Z,3.30
2018-06-16T07:27:36.381Z,3.10
2018-06-16T07:32:31.183Z,3.17
2018-06-16T07:37:26.812Z,3.27
2018-06-16T07:42:21.647Z,2.97
2018-06-16T07:47:16.554Z,2.90
2018-06-16T07:52:11.327Z,2.60
2018-06-16T07:57:06.116Z,2.90
2018-06-16T08:02:01.245Z,2.80
2018-06-16T08:06:56.342Z,3.33
2018-06-16T08:11:51.126Z,3.50
2018-06-16T08:16:45.859Z,3.00
2018-06-16T08:21:40.793Z,3.50
2018-06-16T08:26:35.706Z,3.43
2018-06-16T08:31:30.801Z,3.50
2018-06-16T08:36:25.604Z,3.73
2018-06-16T08:41:20.242Z,3.30
2018-06-16T08:46:15.170Z,2.93
2018-06-16T08:51:09.970Z,3.13
2018-06-16T08:56:05.671Z,2.90
2018-06-16T09:01:00.390Z,2.97
2018-06-16T09:06:01.863Z,2.63
2018-06-16T09:10:57.054Z,2.37
2018-06-16T09:15:52.132Z,2.53
2018-06-16T09:20:46.900Z,2.83
2018-06-16T09:25:41.680Z,2.70
2018-06-16T09:30:36.835Z,2.63
2018-06-16T09:35:31.746Z,2.50
2018-06-16T09:40:26.596Z,2.47
2018-06-16T09:45:21.325Z,2.67
2018-06-16T09:50:16.154Z,2.23
2018-06-16T09:55:10.894Z,1.80
2018-06-16T10:00:10.603Z,2.03
2018-06-16T10:05:05.525Z,2.20
2018-06-16T10:10:00.733Z,2.40
2018-06-16T10:14:55.543Z,2.13
2018-06-16T10:19:50.362Z,2.87
2018-06-16T10:24:45.299Z,2.33
2018-06-16T10:29:40.135Z,2.70
2018-06-16T10:34:34.657Z,2.23
2018-06-16T10:39:29.457Z,2.30
2018-06-16T10:44:24.204Z,2.30
2018-06-16T10:49:19.394Z,2.20
2018-06-16T10:54:14.169Z,2.10
2018-06-16T10:59:09.753Z,2.00
2018-06-16T11:04:04.481Z,2.07
2018-06-16T11:08:59.213Z,2.30
2018-06-16T11:13:53.999Z,1.90
2018-06-16T11:18:48.787Z,2.20
2018-06-16T11:23:43.794Z,2.70
2018-06-16T11:28:38.293Z,2.40
2018-06-16T11:33:32.989Z,2.20
2018-06-16T11:38:27.747Z,2.40
2018-06-16T11:43:22.820Z,2.63
2018-06-16T11:48:18.402Z,2.50
2018-06-16T11:53:13.480Z,2.40
2018-06-16T11:58:08.372Z,2.17
2018-06-16T12:03:03.803Z,2.53
2018-06-16T12:07:59.098Z,2.57
2018-06-16T12:12:53.947Z,2.43
2018-06-16T12:17:49.489Z,2.03
2018-06-16T12:22:44.236Z,2.73
2018-06-16T12:27:39.429Z,2.70
2018-06-16T12:32:34.189Z,2.40
2018-06-16T12:37:29.122Z,2.37
2018-06-16T12:42:24.357Z,2.10
2018-06-16T12:47:19.261Z,2.17
2018-06-16T12:52:14.558Z,2.30
2018-06-16T12:57:09.462Z,2.13
2018-06-16T13:02:04.400Z,2.13
2018-06-16T13:06:59.136Z,1.80
2018-06-16T13:11:53.883Z,2.63
2018-06-16T13:16:48.871Z,2.40
2018-06-16T13:21:43.932Z,2.60
2018-06-16T13:26:39.458Z,2.33
2018-06-16T13:31:34.732Z,2.33
2018-06-16T13:36:29.909Z,2.63
2018-06-16T13:41:24.619Z,2.20
2018-06-16T13:46:19.595Z,3.43
2018-06-16T13:51:14.357Z,2.77
2018-06-16T13:56:09.230Z,2.50
2018-06-16T14:01:03.957Z,2.43
2018-06-16T14:05:58.412Z,2.83
2018-06-16T14:10:53.292Z,2.60
2018-06-16T14:15:48.119Z,2.20
2018-06-16T14:20:43.108Z,2.40
2018-06-16T14:25:37.769Z,2.57
2018-06-16T14:30:32.526Z,2.73
2018-06-16T14:35:27.071Z,2.40
2018-06-16T14:40:22.161Z,2.40
2018-06-16T14:45:17.080Z,2.20
2018-06-16T14:50:12.266Z,2.10
2018-06-16T14:55:07.278Z,2.23
2018-06-16T15:00:02.104Z,2.40
2018-06-16T15:04:56.880Z,2.63
2018-06-16T15:09:51.425Z,2.27
2018-06-16T15:14:46.350Z,2.87
2018-06-16T15:19:40.844Z,2.23
2018-06-16T15:24:35.566Z,2.30
2018-06-16T15:29:30.491Z,2.30
2018-06-16T15:34:25.152Z,2.37
2018-06-16T15:39:20.253Z,2.40
2018-06-16T15:44:15.387Z,2.70
2018-06-16T15:49:09.956Z,2.20
2018-06-16T15:54:04.638Z,2.30
2018-06-16T15:58:59.095Z,2.70
2018-06-16T16:03:53.661Z,3.07
2018-06-16T16:08:48.154Z,3.30
2018-06-16T16:13:43.458Z,3.90
2018-06-16T16:18:38.754Z,4.00
2018-06-16T16:23:33.441Z,4.27
2018-06-16T16:28:27.999Z,4.50
2018-06-16T16:33:22.259Z,4.80
2018-06-16T16:38:16.860Z,4.67
2018-06-16T16:43:11.707Z,5.00
2018-06-16T16:48:06.217Z,5.10
2018-06-16T16:53:00.948Z,5.10
2018-06-16T16:57:55.636Z,4.73
2018-06-16T17:02:50.826Z,4.40
2018-06-16T17:07:45.505Z,5.03
2018-06-16T17:12:40.188Z,4.60
2018-06-16T17:17:35.061Z,4.70
2018-06-16T17:22:29.588Z,4.93
2018-06-16T17:27:24.487Z,4.90
2018-06-16T17:32:19.016Z,4.93
2018-06-16T17:37:13.786Z,4.53
2018-06-16T17:42:08.319Z,5.23
2018-06-16T17:47:02.846Z,5.23
2018-06-16T17:51:57.627Z,5.60
2018-06-16T17:56:52.464Z,6.03
2018-06-16T18:01:47.338Z,8.03
2018-06-16T18:06:42.109Z,6.87
2018-06-16T18:11:39.532Z,7.00
2018-06-16T18:16:33.990Z,7.20
2018-06-16T18:21:28.621Z,7.20
2018-06-16T18:26:23.291Z,7.70
2018-06-16T18:31:18.308Z,8.07
2018-06-16T18:36:13.358Z,7.50
2018-06-16T18:41:07.936Z,8.10
2018-06-16T18:46:02.419Z,7.90
2018-06-16T18:50:57.139Z,7.20
2018-06-16T18:55:51.996Z,7.03
2018-06-16T19:00:48.827Z,7.53
2018-06-16T19:05:43.546Z,8.47
2018-06-16T19:10:38.710Z,8.23
2018-06-16T19:15:35.355Z,7.90
2018-06-16T19:20:30.005Z,7.93
2018-06-16T19:25:24.852Z,8.93
2018-06-16T19:30:19.344Z,8.63
2018-06-16T19:35:13.897Z,8.23
2018-06-16T19:40:08.881Z,8.80
2018-06-16T19:45:03.378Z,7.27
2018-06-16T19:49:58.705Z,8.53
2018-06-16T19:54:53.206Z,7.70
2018-06-16T20:00:03.846Z,7.00
2018-06-16T20:05:07.519Z,6.70
2018-06-16T20:10:22.201Z,7.27
2018-06-16T20:15:16.814Z,6.00
2018-06-16T20:20:11.303Z,5.83
2018-06-16T20:25:14.345Z,6.50
2018-06-16T20:30:08.906Z,6.33
2018-06-16T20:35:03.655Z,6.40
2018-06-16T20:39:58.800Z,6.77
2018-06-16T20:44:58.788Z,6.30
2018-06-16T20:49:53.568Z,6.23
2018-06-16T20:54:48.635Z,6.70
2018-06-16T20:59:44.012Z,7.70
2018-06-16T21:04:50.712Z,6.70
2018-06-16T21:09:56.238Z,7.30
2018-06-16T21:15:08.082Z,7.70
2018-06-16T21:20:16.959Z,8.00
2018-06-16T21:25:11.590Z,7.23
2018-06-16T21:30:06.792Z,6.97
2018-06-16T21:35:21.085Z,7.23
2018-06-16T21:40:40.219Z,6.80
2018-06-16T21:45:54.475Z,6.90
2018-06-16T21:50:58.635Z,7.63
2018-06-16T21:56:14.289Z,7.53
2018-06-16T22:01:25.085Z,6.57
2018-06-16T22:06:43.239Z,7.53
2018-06-16T22:11:50.436Z,7.17
2018-06-16T22:16:45.116Z,6.83
2018-06-16T22:21:44.641Z,6.70
2018-06-16T22:26:39.903Z,6.90
2018-06-16T22:31:34.891Z,7.20
2018-06-16T22:36:30.821Z,7.70
2018-06-16T22:41:26.080Z,7.97
2018-06-16T22:46:23.927Z,8.50
2018-06-16T22:51:18.678Z,9.03
2018-06-16T22:56:13.772Z,8.57
2018-06-16T23:01:08.509Z,8.40
2018-06-16T23:06:04.098Z,8.07
2018-06-16T23:10:59.321Z,8.00
2018-06-16T23:15:54.191Z,7.57
2018-06-16T23:20:49.165Z,8.63
2018-06-16T23:25:44.079Z,7.40
2018-06-16T23:30:39.069Z,8.07
2018-06-16T23:35:35.748Z,7.30
2018-06-16T23:40:30.341Z,7.23
2018-06-16T23:45:25.063Z,7.37
2018-06-16T23:50:19.617Z,8.40
2018-06-16T23:55:45.676Z,7.70
